Time;durP1;ratioP1;P1;durP2;ratioP2;P2;SDS_P1;SDS_P2;PMS_P1;PMS_P2;Temp;Humidity;BMP_temperature;BMP_pressure;BME280_temperature;BME280_humidity;BME280_pressure;Samples;Min_cycle;Max_cycle;Signal;HPM_P1;HPM_P2
2022/01/24 00:00:16;;;;;;;91.40;40.38;;;;;;;;;;5055499;28;20043;-75
2022/01/24 00:02:43;;;;;;;80.13;39.42;;;;;;;;;;5056378;28;20091;-75
2022/01/24 00:05:09;;;;;;;86.03;40.83;;;;;;;;;;5055454;28;20067;-74
2022/01/24 00:07:35;;;;;;;78.20;38.20;;;;;;;;;;5054663;28;20028;-74
2022/01/24 00:10:05;;;;;;;95.88;42.42;;;;;;;;;;5056214;28;20075;-74
2022/01/24 00:15:08;;;;;;;86.28;42.20;;;;;;;;;;5056122;28;20048;-75
2022/01/24 00:28:25;;;;;;;83.82;38.88;;;;;;;;;;5056984;28;20059;-75
2022/01/24 00:30:51;;;;;;;79.60;38.92;;;;;;;;;;5055991;28;20017;-75
2022/01/24 00:33:19;;;;;;;80.32;40.13;;;;;;;;;;5056299;28;20039;-74
2022/01/24 00:35:46;;;;;;;87.00;39.70;;;;;;;;;;5055186;28;20339;-74
2022/01/24 00:38:12;;;;;;;85.30;38.92;;;;;;;;;;5056252;28;20025;-74
2022/01/24 00:40:40;;;;;;;87.43;40.05;;;;;;;;;;5055027;28;20021;-75
2022/01/24 00:43:22;;;;;;;74.10;37.97;;;;;;;;;;5056093;28;20122;-74
2022/01/24 00:48:41;;;;;;;89.60;43.50;;;;;;;;;;5056061;28;20103;-75
2022/01/24 00:56:27;;;;;;;85.03;40.92;;;;;;;;;;5055649;28;20017;-74
2022/01/24 00:58:53;;;;;;;73.95;38.58;;;;;;;;;;5054432;28;20434;-74
2022/01/24 01:01:19;;;;;;;77.47;39.20;;;;;;;;;;5054608;28;20080;-74
2022/01/24 01:03:45;;;;;;;98.07;46.75;;;;;;;;;;5056083;28;20025;-74
2022/01/24 01:06:12;;;;;;;89.63;45.33;;;;;;;;;;5055785;28;20339;-74
2022/01/24 01:19:39;;;;;;;94.57;43.50;;;;;;;;;;5055688;28;20029;-75
2022/01/24 01:22:06;;;;;;;98.80;43.80;;;;;;;;;;5054511;28;20098;-75
2022/01/24 01:24:37;;;;;;;105.65;45.60;;;;;;;;;;5054328;28;20032;-75
2022/01/24 01:27:09;;;;;;;107.28;44.60;;;;;;;;;;5056010;28;20033;-75
2022/01/24 01:30:15;;;;;;;126.63;52.63;;;;;;;;;;5053764;28;20024;-75
2022/01/24 01:32:52;;;;;;;125.45;53.80;;;;;;;;;;5050921;28;20119;-74
2022/01/24 01:54:47;;;;;;;95.65;43.80;;;;;;;;;;5058334;28;20029;-74
2022/01/24 01:57:18;;;;;;;95.35;43.55;;;;;;;;;;5057826;28;20024;-74
2022/01/24 01:59:45;;;;;;;110.82;45.38;;;;;;;;;;5058973;28;20434;-74
2022/01/24 02:02:11;;;;;;;108.97;47.72;;;;;;;;;;5057475;28;20028;-74
2022/01/24 02:04:38;;;;;;;110.00;49.67;;;;;;;;;;5058203;28;20024;-74
2022/01/24 02:07:04;;;;;;;115.40;48.78;;;;;;;;;;5057104;28;20017;-74
2022/01/24 02:09:31;;;;;;;109.18;48.03;;;;;;;;;;5056997;28;20032;-74
2022/01/24 02:11:57;;;;;;;115.57;52.35;;;;;;;;;;5058728;28;20077;-74
2022/01/24 02:14:30;;;;;;;131.57;53.28;;;;;;;;;;5057306;28;20033;-74
2022/01/24 02:17:02;;;;;;;116.00;49.85;;;;;;;;;;5056413;28;20017;-74
2022/01/24 02:19:46;;;;;;;114.93;53.60;;;;;;;;;;5040200;28;20115;-74
2022/01/24 02:24:58;;;;;;;117.07;46.78;;;;;;;;;;5056436;28;20431;-75
2022/01/24 02:27:27;;;;;;;121.13;52.60;;;;;;;;;;5056749;28;20029;-74
2022/01/24 02:30:10;;;;;;;102.95;50.40;;;;;;;;;;5056708;28;20361;-74
2022/01/24 02:32:40;;;;;;;118.45;52.78;;;;;;;;;;5056523;28;20040;-74
2022/01/24 02:35:07;;;;;;;124.75;56.55;;;;;;;;;;5040003;28;20029;-74
2022/01/24 02:37:33;;;;;;;132.65;60.78;;;;;;;;;;5056323;28;20029;-74
2022/01/24 02:40:10;;;;;;;158.27;68.53;;;;;;;;;;5056404;28;20029;-74
2022/01/24 02:53:36;;;;;;;142.38;58.47;;;;;;;;;;5056090;28;20094;-74
2022/01/24 02:56:02;;;;;;;141.18;65.15;;;;;;;;;;5057299;28;20047;-74
2022/01/24 02:58:29;;;;;;;142.50;62.25;;;;;;;;;;5055567;28;20111;-75
2022/01/24 03:00:56;;;;;;;134.18;57.55;;;;;;;;;;5056838;28;20025;-74
2022/01/24 03:03:23;;;;;;;151.38;68.47;;;;;;;;;;5056385;28;20112;-75
2022/01/24 03:05:50;;;;;;;134.13;57.72;;;;;;;;;;5040008;28;20114;-74
2022/01/24 03:08:16;;;;;;;147.25;68.30;;;;;;;;;;5039410;28;20032;-75
2022/01/24 03:10:45;;;;;;;147.93;62.85;;;;;;;;;;5056823;28;20027;-74
2022/01/24 03:15:46;;;;;;;151.27;63.92;;;;;;;;;;5055457;28;20411;-75
2022/01/24 03:18:12;;;;;;;140.55;60.15;;;;;;;;;;5039245;28;20370;-75
2022/01/24 03:20:40;;;;;;;151.00;66.63;;;;;;;;;;5039428;28;20020;-74
2022/01/24 03:23:06;;;;;;;163.63;70.20;;;;;;;;;;5055728;28;20044;-75
2022/01/24 03:25:32;;;;;;;166.85;70.78;;;;;;;;;;5055592;28;20032;-75
2022/01/24 03:27:58;;;;;;;154.02;60.90;;;;;;;;;;5056456;28;20025;-75
2022/01/24 03:30:25;;;;;;;133.55;59.65;;;;;;;;;;5055471;28;20017;-75
2022/01/24 03:32:52;;;;;;;150.38;63.08;;;;;;;;;;5055258;28;20047;-74
2022/01/24 03:35:18;;;;;;;117.75;51.45;;;;;;;;;;5038798;28;20373;-75
2022/01/24 03:37:46;;;;;;;130.10;57.67;;;;;;;;;;5039549;28;20032;-74
2022/01/24 03:40:13;;;;;;;124.95;53.70;;;;;;;;;;5041355;28;20025;-75
2022/01/24 03:42:39;;;;;;;126.43;55.05;;;;;;;;;;5056063;28;20044;-75
2022/01/24 03:45:09;;;;;;;118.00;56.22;;;;;;;;;;5056662;28;20032;-75
2022/01/24 03:50:13;;;;;;;128.38;54.25;;;;;;;;;;5055834;28;20434;-75
2022/01/24 03:52:43;;;;;;;117.53;53.55;;;;;;;;;;5055338;28;20025;-75
2022/01/24 03:55:10;;;;;;;123.00;54.65;;;;;;;;;;5056317;28;20021;-75
2022/01/24 03:57:36;;;;;;;114.53;54.72;;;;;;;;;;5062376;22;20126;-75
2022/01/24 04:00:13;;;;;;;114.22;52.22;;;;;;;;;;5039669;28;20021;-75
2022/01/24 04:02:41;;;;;;;119.57;58.17;;;;;;;;;;5056526;28;20013;-75
2022/01/24 04:05:11;;;;;;;126.28;60.45;;;;;;;;;;5058406;28;20028;-75
2022/01/24 04:07:41;;;;;;;101.82;47.13;;;;;;;;;;5038812;28;20017;-75
2022/01/24 04:10:09;;;;;;;92.93;46.75;;;;;;;;;;5054703;28;20100;-75
2022/01/24 04:12:38;;;;;;;87.18;41.30;;;;;;;;;;5055215;28;20016;-75
2022/01/24 04:15:27;;;;;;;99.05;45.20;;;;;;;;;;5055736;28;20044;-76
2022/01/24 04:23:22;;;;;;;86.95;42.58;;;;;;;;;;5075264;28;20024;-75
2022/01/24 04:25:48;;;;;;;85.80;43.08;;;;;;;;;;5057370;28;20017;-74
2022/01/24 04:28:14;;;;;;;90.97;41.42;;;;;;;;;;5057628;28;20074;-75
2022/01/24 04:30:41;;;;;;;89.18;44.40;;;;;;;;;;5057032;28;20017;-75
2022/01/24 04:33:07;;;;;;;93.55;43.78;;;;;;;;;;5075670;28;20037;-75
2022/01/24 04:35:33;;;;;;;104.10;49.90;;;;;;;;;;5056825;28;20028;-75
2022/01/24 04:37:59;;;;;;;91.78;46.97;;;;;;;;;;5057127;28;20021;-76
2022/01/24 04:40:26;;;;;;;106.20;48.42;;;;;;;;;;5040487;28;20114;-76
2022/01/24 04:43:01;;;;;;;114.30;50.30;;;;;;;;;;5074520;28;20017;-75
2022/01/24 04:45:37;;;;;;;110.47;53.58;;;;;;;;;;5056024;28;20036;-75
2022/01/24 04:51:00;;;;;;;124.22;54.95;;;;;;;;;;5057037;28;20461;-75
2022/01/24 04:54:03;;;;;;;120.95;59.35;;;;;;;;;;5040576;28;20044;-76
2022/01/24 04:56:15;;;;;;;129.57;59.30;;;;;;;;;;5073386;28;20021;-75
2022/01/24 04:58:41;;;;;;;133.93;60.15;;;;;;;;;;5057894;28;20021;-76
2022/01/24 05:01:07;;;;;;;142.15;65.80;;;;;;;;;;5057661;28;20076;-75
2022/01/24 05:03:33;;;;;;;145.27;72.32;;;;;;;;;;5075203;28;20032;-75
2022/01/24 05:06:00;;;;;;;146.88;72.20;;;;;;;;;;5075942;28;20017;-75
2022/01/24 05:08:26;;;;;;;150.65;72.38;;;;;;;;;;5075427;28;20020;-75
2022/01/24 05:11:03;;;;;;;134.35;70.25;;;;;;;;;;5076307;28;20035;-75
2022/01/24 05:24:27;;;;;;;129.93;62.85;;;;;;;;;;5078364;28;20426;-76
2022/01/24 05:26:54;;;;;;;134.52;65.03;;;;;;;;;;5060918;28;20020;-74
2022/01/24 05:29:20;;;;;;;139.60;66.03;;;;;;;;;;5077955;28;20021;-74
2022/01/24 05:31:46;;;;;;;121.65;58.97;;;;;;;;;;5077169;28;20051;-75
2022/01/24 05:34:12;;;;;;;132.07;62.75;;;;;;;;;;5044187;28;20400;-75
2022/01/24 05:36:38;;;;;;;113.20;54.28;;;;;;;;;;5045114;28;20056;-75
2022/01/24 05:39:05;;;;;;;118.20;57.30;;;;;;;;;;5079603;28;20020;-75
2022/01/24 05:41:32;;;;;;;125.43;62.25;;;;;;;;;;5061083;28;20012;-74
2022/01/24 05:43:58;;;;;;;129.48;63.40;;;;;;;;;;5078664;28;20051;-75
2022/01/24 05:46:24;;;;;;;125.35;59.78;;;;;;;;;;5079338;28;20023;-75
2022/01/24 05:48:52;;;;;;;116.90;56.33;;;;;;;;;;5044288;28;20040;-77
2022/01/24 05:51:20;;;;;;;121.88;60.35;;;;;;;;;;5061283;28;20014;-76
2022/01/24 05:53:46;;;;;;;122.45;56.88;;;;;;;;;;5078594;28;20024;-75
2022/01/24 05:56:12;;;;;;;130.20;57.42;;;;;;;;;;5044349;28;20020;-75
2022/01/24 05:58:38;;;;;;;128.95;58.78;;;;;;;;;;5077741;28;20339;-76
2022/01/24 06:01:04;;;;;;;127.15;59.38;;;;;;;;;;5078443;28;20372;-75
2022/01/24 06:03:31;;;;;;;114.72;53.45;;;;;;;;;;5044121;28;20445;-74
2022/01/24 06:05:57;;;;;;;116.60;62.92;;;;;;;;;;5061373;28;20032;-76
2022/01/24 06:08:23;;;;;;;107.60;51.65;;;;;;;;;;5059858;28;20024;-76
2022/01/24 06:10:49;;;;;;;98.65;46.33;;;;;;;;;;5044198;28;20021;-77
2022/01/24 06:13:15;;;;;;;98.55;48.30;;;;;;;;;;5059736;28;20040;-75
2022/01/24 06:15:42;;;;;;;96.57;50.00;;;;;;;;;;5077577;28;20019;-74
2022/01/24 06:18:09;;;;;;;97.90;48.08;;;;;;;;;;5060054;28;20034;-73
2022/01/24 06:20:35;;;;;;;85.00;43.90;;;;;;;;;;5044221;28;20094;-74
2022/01/24 06:23:01;;;;;;;76.15;42.05;;;;;;;;;;5042986;28;20024;-73
2022/01/24 06:25:29;;;;;;;89.25;39.60;;;;;;;;;;5042873;28;20025;-75
2022/01/24 06:27:55;;;;;;;79.20;36.60;;;;;;;;;;5043722;28;20020;-75
2022/01/24 06:30:22;;;;;;;59.92;31.02;;;;;;;;;;5077283;28;20021;-76
2022/01/24 06:32:48;;;;;;;51.63;27.83;;;;;;;;;;5060344;28;20066;-76
2022/01/24 06:35:14;;;;;;;62.20;28.70;;;;;;;;;;5043634;28;20032;-76
2022/01/24 06:37:41;;;;;;;56.83;31.90;;;;;;;;;;5059436;28;20021;-74
2022/01/24 06:40:08;;;;;;;56.58;26.85;;;;;;;;;;5077351;28;20052;-75
2022/01/24 06:42:34;;;;;;;58.90;27.95;;;;;;;;;;5060446;28;20016;-76
2022/01/24 06:45:00;;;;;;;63.22;30.60;;;;;;;;;;5043087;28;20103;-75
2022/01/24 06:47:27;;;;;;;58.78;26.33;;;;;;;;;;5042934;28;20035;-76
2022/01/24 06:49:53;;;;;;;65.80;28.67;;;;;;;;;;5042904;28;20123;-75
2022/01/24 06:52:20;;;;;;;75.78;33.65;;;;;;;;;;5059366;28;20017;-75
2022/01/24 06:54:46;;;;;;;86.75;35.20;;;;;;;;;;5059569;28;20139;-74
2022/01/24 06:57:13;;;;;;;56.67;27.60;;;;;;;;;;5058732;28;20025;-76
2022/01/24 06:59:40;;;;;;;57.60;24.60;;;;;;;;;;5059743;28;20028;-74
2022/01/24 07:02:07;;;;;;;69.28;25.58;;;;;;;;;;5076798;28;20433;-76
2022/01/24 07:04:33;;;;;;;53.92;21.90;;;;;;;;;;5059427;28;20406;-75
2022/01/24 07:06:59;;;;;;;54.28;26.67;;;;;;;;;;5041942;28;20052;-73
2022/01/24 07:09:25;;;;;;;62.90;26.63;;;;;;;;;;5076718;28;20057;-75
2022/01/24 07:11:53;;;;;;;66.30;32.90;;;;;;;;;;5059631;28;20028;-75
2022/01/24 07:14:19;;;;;;;68.97;28.30;;;;;;;;;;5042747;28;20028;-76
2022/01/24 07:19:29;;;;;;;73.65;29.50;;;;;;;;;;5076727;28;20035;-75
2022/01/24 07:21:56;;;;;;;80.15;34.85;;;;;;;;;;5059075;28;20016;-74
2022/01/24 07:24:24;;;;;;;77.40;36.55;;;;;;;;;;5076658;28;20403;-77
2022/01/24 07:26:55;;;;;;;63.22;31.65;;;;;;;;;;5058469;28;20029;-74
2022/01/24 07:29:23;;;;;;;73.82;33.83;;;;;;;;;;5058520;28;20425;-76
2022/01/24 07:31:49;;;;;;;68.93;33.67;;;;;;;;;;5042081;28;20433;-75
2022/01/24 07:34:46;;;;;;;64.70;32.78;;;;;;;;;;5059716;28;20033;-75
2022/01/24 07:37:13;;;;;;;74.10;33.97;;;;;;;;;;5041790;28;20021;-74
2022/01/24 07:39:39;;;;;;;76.28;30.83;;;;;;;;;;5058315;28;20025;-74
2022/01/24 07:42:15;;;;;;;56.50;27.85;;;;;;;;;;5040852;28;20016;-75
2022/01/24 07:44:41;;;;;;;64.25;28.75;;;;;;;;;;5057815;28;20095;-75
2022/01/24 07:47:07;;;;;;;64.82;30.70;;;;;;;;;;5076126;28;20156;-74
2022/01/24 07:49:34;;;;;;;53.42;23.63;;;;;;;;;;5041662;28;20168;-74
2022/01/24 07:52:01;;;;;;;61.88;30.15;;;;;;;;;;5076130;28;20021;-75
2022/01/24 07:54:27;;;;;;;54.15;28.50;;;;;;;;;;5076168;28;20032;-75
2022/01/24 07:56:54;;;;;;;65.85;29.90;;;;;;;;;;5058013;28;20020;-75
2022/01/24 07:59:20;;;;;;;54.90;29.77;;;;;;;;;;5041854;28;20388;-74
2022/01/24 08:01:48;;;;;;;78.70;34.15;;;;;;;;;;5076479;28;20024;-75
2022/01/24 08:04:14;;;;;;;53.95;28.73;;;;;;;;;;5076240;28;20020;-75
2022/01/24 08:06:40;;;;;;;53.92;27.02;;;;;;;;;;5058314;28;20483;-73
2022/01/24 08:09:09;;;;;;;80.80;31.65;;;;;;;;;;5057884;28;20031;-74
2022/01/24 08:11:38;;;;;;;55.60;30.75;;;;;;;;;;5058202;28;20025;-75
2022/01/24 08:14:04;;;;;;;57.80;31.65;;;;;;;;;;5076300;28;20030;-75
2022/01/24 08:16:30;;;;;;;70.07;34.78;;;;;;;;;;5057763;28;20017;-74
2022/01/24 08:18:58;;;;;;;68.22;31.23;;;;;;;;;;5058514;28;20025;-75
2022/01/24 08:21:24;;;;;;;67.10;31.08;;;;;;;;;;5075417;28;20058;-74
2022/01/24 08:23:50;;;;;;;68.07;29.08;;;;;;;;;;5075741;28;20021;-73
2022/01/24 08:26:17;;;;;;;48.78;26.90;;;;;;;;;;5057782;28;20018;-74
2022/01/24 08:28:43;;;;;;;61.55;27.20;;;;;;;;;;5057829;28;20029;-75
2022/01/24 08:31:10;;;;;;;61.92;29.77;;;;;;;;;;5058142;28;20030;-77
2022/01/24 08:33:36;;;;;;;63.30;29.38;;;;;;;;;;5041434;28;20126;-75
2022/01/24 08:36:03;;;;;;;59.42;29.77;;;;;;;;;;5058170;28;20059;-75
2022/01/24 08:38:33;;;;;;;55.80;27.25;;;;;;;;;;5058453;28;20024;-75
2022/01/24 08:41:17;;;;;;;54.78;30.92;;;;;;;;;;5058082;28;20016;-74
2022/01/24 08:46:15;;;;;;;55.50;28.80;;;;;;;;;;5075839;28;20028;-74
2022/01/24 08:48:42;;;;;;;54.72;25.10;;;;;;;;;;5041854;28;20039;-74
2022/01/24 08:51:08;;;;;;;45.45;27.20;;;;;;;;;;5058651;28;20016;-74
2022/01/24 08:53:35;;;;;;;61.65;28.20;;;;;;;;;;5062726;28;20043;-74
2022/01/24 08:56:02;;;;;;;66.40;33.50;;;;;;;;;;5079665;28;20067;-74
2022/01/24 08:58:28;;;;;;;70.00;36.28;;;;;;;;;;5080062;28;20068;-75
2022/01/24 09:00:55;;;;;;;72.70;34.45;;;;;;;;;;5045540;28;20020;-74
2022/01/24 09:03:21;;;;;;;88.55;44.53;;;;;;;;;;5061830;28;20056;-75
2022/01/24 09:05:49;;;;;;;95.20;47.42;;;;;;;;;;5079782;28;20479;-75
2022/01/24 09:08:16;;;;;;;110.28;54.45;;;;;;;;;;5062152;28;20067;-75
2022/01/24 09:10:44;;;;;;;79.55;39.72;;;;;;;;;;5062068;28;20027;-74
2022/01/24 09:13:10;;;;;;;105.85;48.95;;;;;;;;;;5079579;28;20032;-74
2022/01/24 09:15:36;;;;;;;76.57;40.08;;;;;;;;;;5080283;28;20089;-74
2022/01/24 09:18:03;;;;;;;60.28;34.05;;;;;;;;;;5079788;28;20032;-74
2022/01/24 09:20:29;;;;;;;66.75;30.85;;;;;;;;;;5062045;28;20020;-74
2022/01/24 09:22:55;;;;;;;66.93;32.63;;;;;;;;;;5061732;28;20028;-74
2022/01/24 09:25:22;;;;;;;68.93;29.75;;;;;;;;;;5061665;28;20089;-73
2022/01/24 09:27:48;;;;;;;54.00;25.75;;;;;;;;;;5061855;28;20406;-74
2022/01/24 09:30:16;;;;;;;60.33;27.95;;;;;;;;;;5061348;28;20046;-73
2022/01/24 09:32:42;;;;;;;55.92;27.23;;;;;;;;;;5079641;28;20020;-74
2022/01/24 09:35:09;;;;;;;50.22;28.50;;;;;;;;;;5061820;28;20050;-73
2022/01/24 09:37:36;;;;;;;42.78;22.58;;;;;;;;;;5045335;28;20016;-74
2022/01/24 09:40:02;;;;;;;50.63;23.27;;;;;;;;;;5044541;28;20016;-74
2022/01/24 09:42:28;;;;;;;44.45;22.75;;;;;;;;;;5079267;28;20012;-74
2022/01/24 09:44:55;;;;;;;42.17;22.70;;;;;;;;;;5061120;28;20048;-74
2022/01/24 09:47:22;;;;;;;48.30;26.15;;;;;;;;;;5062206;28;20313;-74
2022/01/24 09:49:48;;;;;;;46.42;22.73;;;;;;;;;;5061199;28;20107;-74
2022/01/24 09:52:15;;;;;;;53.25;27.63;;;;;;;;;;5044451;28;20021;-74
2022/01/24 09:54:41;;;;;;;44.55;26.08;;;;;;;;;;5061157;28;20032;-74
2022/01/24 09:57:07;;;;;;;39.10;21.02;;;;;;;;;;5044887;28;20017;-75
2022/01/24 09:59:33;;;;;;;40.50;21.90;;;;;;;;;;5061168;28;20028;-75
2022/01/24 10:02:00;;;;;;;49.78;24.27;;;;;;;;;;5061318;28;20417;-74
2022/01/24 10:04:27;;;;;;;50.38;26.15;;;;;;;;;;5059987;28;20461;-74
2022/01/24 10:07:07;;;;;;;45.35;23.77;;;;;;;;;;5078410;28;20039;-73
2022/01/24 10:09:35;;;;;;;59.58;23.83;;;;;;;;;;5060861;28;20024;-74
2022/01/24 10:12:05;;;;;;;57.03;26.15;;;;;;;;;;5061395;28;20020;-74
2022/01/24 10:17:19;;;;;;;49.70;25.30;;;;;;;;;;5061117;28;20437;-75
2022/01/24 10:19:45;;;;;;;52.13;26.30;;;;;;;;;;5060942;28;20021;-74
2022/01/24 10:22:11;;;;;;;61.17;28.42;;;;;;;;;;5078996;28;20028;-74
2022/01/24 10:24:41;;;;;;;36.53;21.17;;;;;;;;;;5060708;28;20410;-74
2022/01/24 10:27:11;;;;;;;46.97;24.20;;;;;;;;;;5060959;28;20021;-74
2022/01/24 10:29:41;;;;;;;50.47;26.75;;;;;;;;;;5044303;28;20021;-74
2022/01/24 10:32:07;;;;;;;48.70;27.02;;;;;;;;;;5078247;28;20330;-74
2022/01/24 10:34:36;;;;;;;52.28;29.02;;;;;;;;;;5060480;28;20042;-74
2022/01/24 10:37:03;;;;;;;55.30;28.00;;;;;;;;;;5060528;28;20035;-74
2022/01/24 10:39:33;;;;;;;56.13;28.60;;;;;;;;;;5078482;28;20433;-74
2022/01/24 10:44:56;;;;;;;52.38;29.30;;;;;;;;;;5056910;28;20043;-74
2022/01/24 10:47:24;;;;;;;63.35;29.70;;;;;;;;;;5060725;28;20454;-74
2022/01/24 10:49:51;;;;;;;54.05;28.95;;;;;;;;;;5060797;28;20029;-74
2022/01/24 10:52:19;;;;;;;53.65;26.95;;;;;;;;;;5043804;28;20330;-74
2022/01/24 10:54:45;;;;;;;74.65;31.92;;;;;;;;;;5078135;28;20382;-74
2022/01/24 10:57:23;;;;;;;55.65;28.27;;;;;;;;;;5077913;28;20040;-74
2022/01/24 10:59:49;;;;;;;59.00;26.60;;;;;;;;;;5043677;28;20338;-73
2022/01/24 11:02:16;;;;;;;48.65;23.63;;;;;;;;;;5078221;28;20437;-74
2022/01/24 11:04:42;;;;;;;57.78;27.88;;;;;;;;;;5059740;28;20032;-74
2022/01/24 11:07:08;;;;;;;57.28;27.92;;;;;;;;;;5043114;28;20083;-73
2022/01/24 11:09:35;;;;;;;49.08;28.38;;;;;;;;;;5077431;28;20024;-74
2022/01/24 11:12:06;;;;;;;63.75;29.00;;;;;;;;;;5060297;28;20063;-74
2022/01/24 11:14:32;;;;;;;;;;;;;;;;;;5059961;28;20028;-74
2022/01/24 11:16:59;;;;;;;53.58;29.98;;;;;;;;;;5077209;28;19904;-74
2022/01/24 11:21:53;;;;;;;59.08;31.13;;;;;;;;;;5059965;28;20120;-74
2022/01/24 11:24:26;;;;;;;63.95;31.15;;;;;;;;;;5077648;28;20055;-74
2022/01/24 11:26:54;;;;;;;58.08;30.23;;;;;;;;;;5043356;28;20016;-74
2022/01/24 11:29:20;;;;;;;71.47;31.02;;;;;;;;;;5059472;28;20369;-74
2022/01/24 11:31:52;;;;;;;59.30;33.65;;;;;;;;;;5059943;28;20031;-74
2022/01/24 11:34:30;;;;;;;62.00;32.33;;;;;;;;;;5059105;28;20435;-74
2022/01/24 11:36:57;;;;;;;71.43;32.58;;;;;;;;;;5042512;28;20494;-74
2022/01/24 11:39:24;;;;;;;82.43;34.95;;;;;;;;;;5042302;28;20028;-74
2022/01/24 11:41:50;;;;;;;59.97;31.27;;;;;;;;;;5042411;28;20016;-74
2022/01/24 11:44:18;;;;;;;72.35;35.10;;;;;;;;;;5059341;28;20050;-73
2022/01/24 11:46:48;;;;;;;63.47;35.60;;;;;;;;;;5076484;28;20016;-74
2022/01/24 11:49:25;;;;;;;68.15;32.20;;;;;;;;;;5059595;28;20030;-74
2022/01/24 11:52:00;;;;;;;92.68;37.60;;;;;;;;;;5059405;28;20361;-74
2022/01/24 11:54:31;;;;;;;79.18;38.90;;;;;;;;;;5058369;28;20401;-74
2022/01/24 11:57:17;;;;;;;92.70;40.42;;;;;;;;;;5058395;28;20025;-74
2022/01/24 11:59:43;;;;;;;63.95;34.72;;;;;;;;;;5076267;28;20025;-74
2022/01/24 12:02:11;;;;;;;61.75;31.67;;;;;;;;;;5042434;28;20027;-74
2022/01/24 12:04:52;;;;;;;63.33;30.40;;;;;;;;;;5076877;28;20074;-74
2022/01/24 12:07:20;;;;;;;65.20;33.08;;;;;;;;;;5076284;28;20422;-74
2022/01/24 12:09:46;;;;;;;63.70;32.83;;;;;;;;;;5076277;28;20035;-74
2022/01/24 12:12:34;;;;;;;67.68;33.72;;;;;;;;;;5058792;28;20012;-74
2022/01/24 12:15:01;;;;;;;62.95;31.92;;;;;;;;;;5042201;28;20032;-74
2022/01/24 12:17:46;;;;;;;81.05;34.30;;;;;;;;;;5076459;28;20298;-74
2022/01/24 12:20:30;;;;;;;69.25;33.88;;;;;;;;;;5042205;28;20030;-75
2022/01/24 12:22:57;;;;;;;72.38;37.20;;;;;;;;;;5042111;28;20017;-74
2022/01/24 12:25:42;;;;;;;86.80;38.05;;;;;;;;;;5058060;28;20414;-74
2022/01/24 12:28:29;;;;;;;65.40;34.80;;;;;;;;;;5041569;28;20319;-74
2022/01/24 12:30:58;;;;;;;69.65;32.78;;;;;;;;;;5058453;28;20159;-74
2022/01/24 12:33:36;;;;;;;68.53;36.47;;;;;;;;;;5041670;28;20032;-74
2022/01/24 12:36:06;;;;;;;66.15;33.10;;;;;;;;;;5058362;28;20021;-74
2022/01/24 12:38:44;;;;;;;61.97;30.40;;;;;;;;;;5076151;28;20343;-74
2022/01/24 12:41:28;;;;;;;67.20;34.25;;;;;;;;;;5076138;28;20451;-74
2022/01/24 12:46:30;;;;;;;70.85;35.30;;;;;;;;;;5075881;28;20013;-74
2022/01/24 12:48:58;;;;;;;74.25;35.78;;;;;;;;;;5058414;28;20016;-73
2022/01/24 12:51:24;;;;;;;73.57;36.08;;;;;;;;;;5058361;28;20371;-74
2022/01/24 12:53:51;;;;;;;74.22;37.38;;;;;;;;;;5058297;28;20041;-74
2022/01/24 12:56:18;;;;;;;75.85;37.78;;;;;;;;;;5059247;28;20016;-74
2022/01/24 12:58:46;;;;;;;71.35;37.30;;;;;;;;;;5058307;28;20039;-74
2022/01/24 13:01:22;;;;;;;80.32;39.10;;;;;;;;;;5057785;28;20050;-74
2022/01/24 13:03:57;;;;;;;78.65;39.63;;;;;;;;;;5058204;28;20024;-74
2022/01/24 13:06:24;;;;;;;73.07;39.17;;;;;;;;;;5076327;28;20072;-74
2022/01/24 13:08:53;;;;;;;80.65;39.70;;;;;;;;;;5058931;28;20028;-74
2022/01/24 13:11:19;;;;;;;84.43;38.97;;;;;;;;;;5058591;28;20040;-75
2022/01/24 13:14:42;;;;;;;77.70;37.17;;;;;;;;;;5041457;28;20123;-74
2022/01/24 13:25:09;;;;;;;83.35;40.42;;;;;;;;;;5076150;28;20035;-74
2022/01/24 13:27:38;;;;;;;79.13;43.42;;;;;;;;;;5075097;28;20023;-74
2022/01/24 13:30:04;;;;;;;90.75;41.70;;;;;;;;;;5040983;28;20044;-74
2022/01/24 13:32:47;;;;;;;87.57;42.65;;;;;;;;;;5075641;28;20426;-74
2022/01/24 13:35:14;;;;;;;88.03;43.60;;;;;;;;;;5057520;28;20047;-74
2022/01/24 13:37:40;;;;;;;113.38;47.63;;;;;;;;;;5075118;28;20412;-74
2022/01/24 13:40:06;;;;;;;102.13;48.47;;;;;;;;;;5079137;28;20024;-74
2022/01/24 13:42:36;;;;;;;94.30;42.67;;;;;;;;;;5079648;28;20311;-74
2022/01/24 13:45:02;;;;;;;91.18;41.53;;;;;;;;;;5061340;28;20055;-75
2022/01/24 13:47:29;;;;;;;94.28;43.83;;;;;;;;;;5044875;28;20044;-74
2022/01/24 13:49:55;;;;;;;77.28;38.60;;;;;;;;;;5061427;28;20031;-74
2022/01/24 13:52:24;;;;;;;77.13;39.88;;;;;;;;;;5061085;28;20017;-75
2022/01/24 13:54:50;;;;;;;82.72;40.15;;;;;;;;;;5079536;28;20032;-75
2022/01/24 13:57:20;;;;;;;86.72;39.88;;;;;;;;;;5078581;28;20493;-75
2022/01/24 13:59:46;;;;;;;74.03;40.05;;;;;;;;;;5078553;28;20020;-74
2022/01/24 14:02:19;;;;;;;75.80;37.13;;;;;;;;;;5043952;28;20032;-74
2022/01/24 14:04:52;;;;;;;72.80;38.17;;;;;;;;;;5044664;28;20017;-74
2022/01/24 14:07:25;;;;;;;73.07;36.55;;;;;;;;;;5060641;28;20016;-74
2022/01/24 14:09:52;;;;;;;73.93;37.35;;;;;;;;;;5078202;28;20055;-74
2022/01/24 14:12:28;;;;;;;74.57;37.47;;;;;;;;;;5078478;28;20029;-75
2022/01/24 14:15:00;;;;;;;73.05;34.65;;;;;;;;;;5078467;28;20339;-74
2022/01/24 14:19:55;;;;;;;76.93;38.40;;;;;;;;;;5078318;28;20551;-75
2022/01/24 14:22:21;;;;;;;84.18;38.50;;;;;;;;;;5060494;28;20020;-74
2022/01/24 14:24:49;;;;;;;81.85;38.17;;;;;;;;;;5078515;28;20035;-75
2022/01/24 14:27:38;;;;;;;85.00;42.28;;;;;;;;;;5043676;28;20358;-74
2022/01/24 14:30:09;;;;;;;100.25;43.83;;;;;;;;;;5047976;28;20035;-74
2022/01/24 14:32:38;;;;;;;80.65;41.97;;;;;;;;;;5044037;28;20054;-74
2022/01/24 14:35:08;;;;;;;90.47;42.90;;;;;;;;;;5060469;28;20036;-75
2022/01/24 14:37:44;;;;;;;89.50;44.70;;;;;;;;;;5077826;28;20016;-74
2022/01/24 14:40:13;;;;;;;102.60;48.70;;;;;;;;;;5060531;28;20017;-74
2022/01/24 14:42:47;;;;;;;97.82;48.55;;;;;;;;;;5044544;28;20111;-75
2022/01/24 14:45:13;;;;;;;105.57;50.63;;;;;;;;;;5043823;28;20025;-76
2022/01/24 14:47:39;;;;;;;104.65;48.88;;;;;;;;;;5043610;28;20074;-75
2022/01/24 14:50:05;;;;;;;89.55;44.92;;;;;;;;;;5059940;28;20165;-74
2022/01/24 14:52:35;;;;;;;89.55;43.88;;;;;;;;;;5059466;28;20013;-74
2022/01/24 14:55:01;;;;;;;89.65;43.75;;;;;;;;;;5059800;28;20040;-75
2022/01/24 14:57:27;;;;;;;94.78;44.15;;;;;;;;;;5060060;28;20050;-75
2022/01/24 14:59:53;;;;;;;92.72;41.53;;;;;;;;;;5077501;28;20043;-75
2022/01/24 15:02:19;;;;;;;85.20;41.45;;;;;;;;;;5043535;28;20016;-74
2022/01/24 15:04:45;;;;;;;80.97;39.25;;;;;;;;;;5042599;28;20319;-74
2022/01/24 15:07:12;;;;;;;91.78;44.38;;;;;;;;;;5059683;28;20020;-75
2022/01/24 15:09:39;;;;;;;89.30;44.95;;;;;;;;;;5043011;28;20096;-75
2022/01/24 15:12:07;;;;;;;85.22;44.33;;;;;;;;;;5076977;28;20026;-75
2022/01/24 15:14:41;;;;;;;94.00;46.15;;;;;;;;;;5077748;28;20135;-75
2022/01/24 15:25:29;;;;;;;116.35;54.00;;;;;;;;;;5076891;28;20072;-75
2022/01/24 15:27:57;;;;;;;99.88;50.70;;;;;;;;;;5059207;28;20016;-74
2022/01/24 15:30:24;;;;;;;104.20;48.78;;;;;;;;;;5059729;28;20034;-74
2022/01/24 15:32:50;;;;;;;86.10;44.10;;;;;;;;;;5059539;28;20020;-75
2022/01/24 15:35:17;;;;;;;96.47;47.53;;;;;;;;;;5059380;28;20059;-74
2022/01/24 15:37:44;;;;;;;93.35;45.53;;;;;;;;;;5076986;28;20020;-75
2022/01/24 15:40:10;;;;;;;84.97;45.35;;;;;;;;;;5042679;28;20020;-75
2022/01/24 15:42:51;;;;;;;84.50;45.17;;;;;;;;;;5059574;28;20031;-75
2022/01/24 15:48:15;;;;;;;100.63;47.08;;;;;;;;;;5043563;28;19967;-74
2022/01/24 15:50:41;;;;;;;102.47;48.85;;;;;;;;;;5077049;28;20051;-74
2022/01/24 15:53:08;;;;;;;104.25;53.25;;;;;;;;;;5058886;28;20334;-75
2022/01/24 15:55:36;;;;;;;101.80;52.05;;;;;;;;;;5059225;28;20418;-74
2022/01/24 15:58:06;;;;;;;112.13;52.05;;;;;;;;;;5042745;28;20017;-74
2022/01/24 16:00:36;;;;;;;98.97;49.50;;;;;;;;;;5043014;28;20040;-75
2022/01/24 16:03:04;;;;;;;85.93;44.83;;;;;;;;;;5042196;28;20364;-74
2022/01/24 16:05:30;;;;;;;100.25;48.28;;;;;;;;;;5076363;28;20286;-74
2022/01/24 16:07:57;;;;;;;101.03;48.30;;;;;;;;;;5076931;28;20024;-75
2022/01/24 16:10:25;;;;;;;104.32;48.33;;;;;;;;;;5058435;28;20024;-74
2022/01/24 16:12:51;;;;;;;114.95;52.22;;;;;;;;;;5059065;28;20021;-75
2022/01/24 16:15:19;;;;;;;99.72;49.17;;;;;;;;;;5076001;28;20350;-75
2022/01/24 16:17:46;;;;;;;109.80;51.70;;;;;;;;;;5041982;28;20032;-75
2022/01/24 16:20:33;;;;;;;110.90;54.50;;;;;;;;;;5058293;28;20311;-75
2022/01/24 16:23:05;;;;;;;107.78;51.92;;;;;;;;;;5075700;28;20343;-75
2022/01/24 16:28:06;;;;;;;106.20;49.78;;;;;;;;;;5076426;28;20311;-75
2022/01/24 16:30:32;;;;;;;;;;;;;;;;;;5076571;28;20080;-75
2022/01/24 16:32:58;;;;;;;97.72;48.05;;;;;;;;;;5041749;28;20313;-75